sensor_id;sensor_type;location;lat;lon;timestamp;temperature;humidity
51996;DHT22;38010;53.264;6.592;2023-02-01T00:01:56;13.00;99.90
51996;DHT22;38010;53.264;6.592;2023-02-01T00:04:22;13.00;99.90
51996;DHT22;38010;53.264;6.592;2023-02-01T00:06:47;13.00;99.90
51996;DHT22;38010;53.264;6.592;2023-02-01T00:09:14;13.00;99.90
51996;DHT22;38010;53.264;6.592;2023-02-01T00:11:39;12.90;99.90
51996;DHT22;38010;53.264;6.592;2023-02-01T00:14:06;12.90;99.90
51996;DHT22;38010;53.264;6.592;2023-02-01T00:16:31;12.90;99.90
51996;DHT22;38010;53.264;6.592;2023-02-01T00:19:11;12.90;99.90
51996;DHT22;38010;53.264;6.592;2023-02-01T00:21:37;12.90;99.90
51996;DHT22;38010;53.264;6.592;2023-02-01T00:24:03;12.90;99.90
51996;DHT22;38010;53.264;6.592;2023-02-01T00:26:38;12.90;99.90
51996;DHT22;38010;53.264;6.592;2023-02-01T00:29:07;12.90;99.90
51996;DHT22;38010;53.264;6.592;2023-02-01T00:31:35;12.90;99.90
51996;DHT22;38010;53.264;6.592;2023-02-01T00:34:01;12.90;99.90
51996;DHT22;38010;53.264;6.592;2023-02-01T00:36:27;12.90;99.90
51996;DHT22;38010;53.264;6.592;2023-02-01T00:38:53;12.90;99.90
51996;DHT22;38010;53.264;6.592;2023-02-01T00:41:20;12.90;99.90
51996;DHT22;38010;53.264;6.592;2023-02-01T00:43:47;12.90;99.90
51996;DHT22;38010;53.264;6.592;2023-02-01T00:46:15;12.90;99.90
51996;DHT22;38010;53.264;6.592;2023-02-01T00:48:41;12.90;99.90
51996;DHT22;38010;53.264;6.592;2023-02-01T00:51:09;12.90;99.90
51996;DHT22;38010;53.264;6.592;2023-02-01T00:53:35;12.80;99.90
51996;DHT22;38010;53.264;6.592;2023-02-01T00:56:01;12.90;99.90
51996;DHT22;38010;53.264;6.592;2023-02-01T00:58:27;12.90;99.90
51996;DHT22;38010;53.264;6.592;2023-02-01T01:01:15;12.80;99.90
51996;DHT22;38010;53.264;6.592;2023-02-01T01:03:43;12.80;99.90
51996;DHT22;38010;53.264;6.592;2023-02-01T01:06:13;12.80;99.90
51996;DHT22;38010;53.264;6.592;2023-02-01T01:08:40;12.80;99.90
51996;DHT22;38010;53.264;6.592;2023-02-01T01:11:11;12.80;99.90
51996;DHT22;38010;53.264;6.592;2023-02-01T01:13:37;12.80;99.90
51996;DHT22;38010;53.264;6.592;2023-02-01T01:16:04;12.80;99.90
51996;DHT22;38010;53.264;6.592;2023-02-01T01:18:31;12.80;99.90
51996;DHT22;38010;53.264;6.592;2023-02-01T01:20:58;12.80;99.90
51996;DHT22;38010;53.264;6.592;2023-02-01T01:23:24;12.80;99.90
51996;DHT22;38010;53.264;6.592;2023-02-01T01:25:50;12.80;99.90
51996;DHT22;38010;53.264;6.592;2023-02-01T01:28:16;12.80;99.90
51996;DHT22;38010;53.264;6.592;2023-02-01T01:30:41;12.80;99.90
51996;DHT22;38010;53.264;6.592;2023-02-01T01:33:07;12.80;99.90
51996;DHT22;38010;53.264;6.592;2023-02-01T01:35:33;12.70;99.90
51996;DHT22;38010;53.264;6.592;2023-02-01T01:38:00;12.70;99.90
51996;DHT22;38010;53.264;6.592;2023-02-01T01:40:27;12.70;99.90
51996;DHT22;38010;53.264;6.592;2023-02-01T01:42:53;12.70;99.90
51996;DHT22;38010;53.264;6.592;2023-02-01T01:47:53;12.70;99.90
51996;DHT22;38010;53.264;6.592;2023-02-01T01:50:44;12.70;99.90
51996;DHT22;38010;53.264;6.592;2023-02-01T01:53:11;12.70;99.90
51996;DHT22;38010;53.264;6.592;2023-02-01T01:55:40;12.70;99.90
51996;DHT22;38010;53.264;6.592;2023-02-01T01:58:27;12.70;99.90
51996;DHT22;38010;53.264;6.592;2023-02-01T02:00:53;12.70;99.90
51996;DHT22;38010;53.264;6.592;2023-02-01T02:03:23;12.70;99.90
51996;DHT22;38010;53.264;6.592;2023-02-01T02:05:52;12.70;99.90
51996;DHT22;38010;53.264;6.592;2023-02-01T02:08:19;12.70;99.90
51996;DHT22;38010;53.264;6.592;2023-02-01T02:10:47;12.70;99.90
51996;DHT22;38010;53.264;6.592;2023-02-01T02:13:35;12.70;99.90
51996;DHT22;38010;53.264;6.592;2023-02-01T02:21:16;12.70;99.90
51996;DHT22;38010;53.264;6.592;2023-02-01T02:23:57;12.70;99.90
51996;DHT22;38010;53.264;6.592;2023-02-01T02:34:46;12.80;99.90
51996;DHT22;38010;53.264;6.592;2023-02-01T02:49:20;12.90;99.90
51996;DHT22;38010;53.264;6.592;2023-02-01T02:52:05;12.90;99.90
51996;DHT22;38010;53.264;6.592;2023-02-01T02:54:54;12.90;99.90
51996;DHT22;38010;53.264;6.592;2023-02-01T02:57:34;12.90;99.90
51996;DHT22;38010;53.264;6.592;2023-02-01T03:00:22;12.90;99.90
51996;DHT22;38010;53.264;6.592;2023-02-01T03:03:08;12.90;99.90
51996;DHT22;38010;53.264;6.592;2023-02-01T03:05:52;12.90;99.90
51996;DHT22;38010;53.264;6.592;2023-02-01T03:08:23;12.90;99.90
51996;DHT22;38010;53.264;6.592;2023-02-01T03:10:56;12.90;99.90
51996;DHT22;38010;53.264;6.592;2023-02-01T03:13:28;12.90;99.90
51996;DHT22;38010;53.264;6.592;2023-02-01T03:18:51;12.80;99.90
51996;DHT22;38010;53.264;6.592;2023-02-01T03:21:25;12.90;99.90
51996;DHT22;38010;53.264;6.592;2023-02-01T03:23:53;12.90;99.90
51996;DHT22;38010;53.264;6.592;2023-02-01T03:26:22;12.90;99.90
51996;DHT22;38010;53.264;6.592;2023-02-01T03:29:00;12.90;99.90
51996;DHT22;38010;53.264;6.592;2023-02-01T03:31:28;12.90;99.90
51996;DHT22;38010;53.264;6.592;2023-02-01T03:33:54;12.90;99.90
51996;DHT22;38010;53.264;6.592;2023-02-01T03:39:28;13.00;99.90
51996;DHT22;38010;53.264;6.592;2023-02-01T03:42:04;13.00;99.90
51996;DHT22;38010;53.264;6.592;2023-02-01T03:45:13;13.00;99.90
51996;DHT22;38010;53.264;6.592;2023-02-01T03:47:43;13.00;99.90
51996;DHT22;38010;53.264;6.592;2023-02-01T03:50:14;13.00;99.90
51996;DHT22;38010;53.264;6.592;2023-02-01T03:52:46;13.00;99.90
51996;DHT22;38010;53.264;6.592;2023-02-01T03:55:15;13.00;99.90
51996;DHT22;38010;53.264;6.592;2023-02-01T03:57:46;13.00;99.90
51996;DHT22;38010;53.264;6.592;2023-02-01T04:00:22;12.90;99.90
51996;DHT22;38010;53.264;6.592;2023-02-01T04:02:48;13.00;99.90
51996;DHT22;38010;53.264;6.592;2023-02-01T04:05:14;13.00;99.90
51996;DHT22;38010;53.264;6.592;2023-02-01T04:07:40;13.00;99.90
51996;DHT22;38010;53.264;6.592;2023-02-01T04:10:07;13.00;99.90
51996;DHT22;38010;53.264;6.592;2023-02-01T04:12:32;13.00;99.90
51996;DHT22;38010;53.264;6.592;2023-02-01T04:14:58;13.00;99.90
51996;DHT22;38010;53.264;6.592;2023-02-01T04:17:24;13.00;99.90
51996;DHT22;38010;53.264;6.592;2023-02-01T04:19:50;13.00;99.90
51996;DHT22;38010;53.264;6.592;2023-02-01T04:22:15;13.00;99.90
51996;DHT22;38010;53.264;6.592;2023-02-01T04:24:41;13.00;99.90
51996;DHT22;38010;53.264;6.592;2023-02-01T04:27:07;13.00;99.90
51996;DHT22;38010;53.264;6.592;2023-02-01T04:29:33;13.00;99.90
51996;DHT22;38010;53.264;6.592;2023-02-01T04:31:59;13.00;99.90
51996;DHT22;38010;53.264;6.592;2023-02-01T04:34:24;13.00;99.90
51996;DHT22;38010;53.264;6.592;2023-02-01T04:36:51;13.00;99.90
51996;DHT22;38010;53.264;6.592;2023-02-01T04:39:17;13.00;99.90
51996;DHT22;38010;53.264;6.592;2023-02-01T04:41:42;13.00;99.90
51996;DHT22;38010;53.264;6.592;2023-02-01T04:44:16;13.00;99.90
51996;DHT22;38010;53.264;6.592;2023-02-01T04:46:45;13.00;99.90
51996;DHT22;38010;53.264;6.592;2023-02-01T04:49:12;13.00;99.90
51996;DHT22;38010;53.264;6.592;2023-02-01T04:51:38;13.00;99.90
51996;DHT22;38010;53.264;6.592;2023-02-01T04:54:04;13.00;99.90
51996;DHT22;38010;53.264;6.592;2023-02-01T04:56:30;13.00;99.90
51996;DHT22;38010;53.264;6.592;2023-02-01T04:58:56;13.00;99.90
51996;DHT22;38010;53.264;6.592;2023-02-01T05:01:22;12.90;99.90
51996;DHT22;38010;53.264;6.592;2023-02-01T05:03:48;13.00;99.90
51996;DHT22;38010;53.264;6.592;2023-02-01T05:06:14;12.90;99.90
51996;DHT22;38010;53.264;6.592;2023-02-01T05:08:40;12.90;99.90
51996;DHT22;38010;53.264;6.592;2023-02-01T05:11:05;12.90;99.90
51996;DHT22;38010;53.264;6.592;2023-02-01T05:13:31;13.00;99.90
51996;DHT22;38010;53.264;6.592;2023-02-01T05:16:16;13.00;99.90
51996;DHT22;38010;53.264;6.592;2023-02-01T05:18:42;13.00;99.90
51996;DHT22;38010;53.264;6.592;2023-02-01T05:21:08;13.00;99.90
51996;DHT22;38010;53.264;6.592;2023-02-01T05:23:34;13.00;99.90
51996;DHT22;38010;53.264;6.592;2023-02-01T05:26:19;13.00;99.90
51996;DHT22;38010;53.264;6.592;2023-02-01T05:28:45;13.00;99.90
51996;DHT22;38010;53.264;6.592;2023-02-01T05:31:11;13.00;99.90
51996;DHT22;38010;53.264;6.592;2023-02-01T05:33:37;13.00;99.90
51996;DHT22;38010;53.264;6.592;2023-02-01T05:36:03;13.00;99.90
51996;DHT22;38010;53.264;6.592;2023-02-01T05:38:28;13.00;99.90
51996;DHT22;38010;53.264;6.592;2023-02-01T05:40:55;13.00;99.90
51996;DHT22;38010;53.264;6.592;2023-02-01T05:43:21;13.00;99.90
51996;DHT22;38010;53.264;6.592;2023-02-01T05:45:47;13.00;99.90
51996;DHT22;38010;53.264;6.592;2023-02-01T05:48:13;13.00;99.90
51996;DHT22;38010;53.264;6.592;2023-02-01T05:50:38;13.00;99.90
51996;DHT22;38010;53.264;6.592;2023-02-01T05:53:04;12.90;99.90
51996;DHT22;38010;53.264;6.592;2023-02-01T05:55:31;12.90;99.90
51996;DHT22;38010;53.264;6.592;2023-02-01T05:57:56;13.00;99.90
51996;DHT22;38010;53.264;6.592;2023-02-01T06:00:22;12.90;99.90
51996;DHT22;38010;53.264;6.592;2023-02-01T06:02:48;12.90;99.90
51996;DHT22;38010;53.264;6.592;2023-02-01T06:05:14;12.90;99.90
51996;DHT22;38010;53.264;6.592;2023-02-01T06:07:40;12.90;99.90
51996;DHT22;38010;53.264;6.592;2023-02-01T06:10:06;12.90;99.90
51996;DHT22;38010;53.264;6.592;2023-02-01T06:12:32;12.90;99.90
51996;DHT22;38010;53.264;6.592;2023-02-01T06:14:58;12.90;99.90
51996;DHT22;38010;53.264;6.592;2023-02-01T06:17:24;12.90;99.90
51996;DHT22;38010;53.264;6.592;2023-02-01T06:19:50;12.90;99.90
51996;DHT22;38010;53.264;6.592;2023-02-01T06:22:16;12.90;99.90
51996;DHT22;38010;53.264;6.592;2023-02-01T06:24:42;12.90;99.90
51996;DHT22;38010;53.264;6.592;2023-02-01T06:27:07;12.90;99.90
51996;DHT22;38010;53.264;6.592;2023-02-01T06:29:35;13.00;99.90
51996;DHT22;38010;53.264;6.592;2023-02-01T06:32:00;12.90;99.90
51996;DHT22;38010;53.264;6.592;2023-02-01T06:34:26;13.00;99.90
51996;DHT22;38010;53.264;6.592;2023-02-01T06:36:52;12.90;99.90
51996;DHT22;38010;53.264;6.592;2023-02-01T06:39:18;12.90;99.90
51996;DHT22;38010;53.264;6.592;2023-02-01T06:41:48;12.90;99.90
51996;DHT22;38010;53.264;6.592;2023-02-01T06:44:14;12.90;99.90
51996;DHT22;38010;53.264;6.592;2023-02-01T06:46:40;12.90;99.90
51996;DHT22;38010;53.264;6.592;2023-02-01T06:49:06;12.90;99.90
51996;DHT22;38010;53.264;6.592;2023-02-01T06:51:32;12.90;99.90
51996;DHT22;38010;53.264;6.592;2023-02-01T06:53:57;13.00;99.90
51996;DHT22;38010;53.264;6.592;2023-02-01T06:56:23;13.00;99.90
51996;DHT22;38010;53.264;6.592;2023-02-01T06:58:49;13.00;99.90
51996;DHT22;38010;53.264;6.592;2023-02-01T07:01:15;13.00;99.90
51996;DHT22;38010;53.264;6.592;2023-02-01T07:03:41;13.00;99.90
51996;DHT22;38010;53.264;6.592;2023-02-01T07:06:08;13.00;99.90
51996;DHT22;38010;53.264;6.592;2023-02-01T07:08:36;12.90;99.90
51996;DHT22;38010;53.264;6.592;2023-02-01T07:11:05;12.90;99.90
51996;DHT22;38010;53.264;6.592;2023-02-01T07:13:31;13.00;99.90
51996;DHT22;38010;53.264;6.592;2023-02-01T07:15:59;13.00;99.90
51996;DHT22;38010;53.264;6.592;2023-02-01T07:18:26;12.90;99.90
51996;DHT22;38010;53.264;6.592;2023-02-01T07:20:52;13.00;99.90
51996;DHT22;38010;53.264;6.592;2023-02-01T07:23:17;13.00;99.90
51996;DHT22;38010;53.264;6.592;2023-02-01T07:25:43;13.00;99.90
51996;DHT22;38010;53.264;6.592;2023-02-01T07:28:09;13.00;99.90
51996;DHT22;38010;53.264;6.592;2023-02-01T07:30:34;13.00;99.90
51996;DHT22;38010;53.264;6.592;2023-02-01T07:33:00;13.00;99.90
51996;DHT22;38010;53.264;6.592;2023-02-01T07:35:27;13.00;99.90
51996;DHT22;38010;53.264;6.592;2023-02-01T07:37:53;13.00;99.90
51996;DHT22;38010;53.264;6.592;2023-02-01T07:40:19;13.10;99.90
51996;DHT22;38010;53.264;6.592;2023-02-01T07:42:50;13.10;99.90
51996;DHT22;38010;53.264;6.592;2023-02-01T07:45:16;13.10;99.90
51996;DHT22;38010;53.264;6.592;2023-02-01T07:47:42;13.00;99.90
51996;DHT22;38010;53.264;6.592;2023-02-01T07:50:08;13.10;99.90
51996;DHT22;38010;53.264;6.592;2023-02-01T07:52:33;13.10;99.90
51996;DHT22;38010;53.264;6.592;2023-02-01T07:54:59;13.10;99.90
51996;DHT22;38010;53.264;6.592;2023-02-01T07:57:25;13.00;99.90
51996;DHT22;38010;53.264;6.592;2023-02-01T07:59:51;13.10;99.90
51996;DHT22;38010;53.264;6.592;2023-02-01T08:02:35;13.10;99.90
51996;DHT22;38010;53.264;6.592;2023-02-01T08:05:01;13.10;99.90
51996;DHT22;38010;53.264;6.592;2023-02-01T08:07:27;13.10;99.90
51996;DHT22;38010;53.264;6.592;2023-02-01T08:09:52;13.10;99.90
51996;DHT22;38010;53.264;6.592;2023-02-01T08:12:18;13.10;99.90
51996;DHT22;38010;53.264;6.592;2023-02-01T08:14:44;13.10;99.90
51996;DHT22;38010;53.264;6.592;2023-02-01T08:17:09;13.00;99.90
51996;DHT22;38010;53.264;6.592;2023-02-01T08:19:35;13.10;99.90
51996;DHT22;38010;53.264;6.592;2023-02-01T08:22:01;13.10;99.90
51996;DHT22;38010;53.264;6.592;2023-02-01T08:24:31;13.00;99.90
51996;DHT22;38010;53.264;6.592;2023-02-01T08:26:57;13.00;99.90
51996;DHT22;38010;53.264;6.592;2023-02-01T08:29:23;13.10;99.90
51996;DHT22;38010;53.264;6.592;2023-02-01T08:31:48;13.10;99.90
51996;DHT22;38010;53.264;6.592;2023-02-01T08:34:14;13.10;99.90
51996;DHT22;38010;53.264;6.592;2023-02-01T08:36:40;13.10;99.90
51996;DHT22;38010;53.264;6.592;2023-02-01T08:39:06;13.10;99.90
51996;DHT22;38010;53.264;6.592;2023-02-01T08:41:34;13.10;99.90
51996;DHT22;38010;53.264;6.592;2023-02-01T08:44:00;13.10;99.90
51996;DHT22;38010;53.264;6.592;2023-02-01T08:46:26;13.10;99.90
51996;DHT22;38010;53.264;6.592;2023-02-01T08:48:52;13.10;99.90
51996;DHT22;38010;53.264;6.592;2023-02-01T08:51:19;13.10;99.90
51996;DHT22;38010;53.264;6.592;2023-02-01T08:53:46;13.10;99.90
51996;DHT22;38010;53.264;6.592;2023-02-01T08:56:13;13.10;99.90
51996;DHT22;38010;53.264;6.592;2023-02-01T08:58:40;13.10;99.90
51996;DHT22;38010;53.264;6.592;2023-02-01T09:01:14;13.10;99.90
51996;DHT22;38010;53.264;6.592;2023-02-01T09:03:41;13.10;99.90
51996;DHT22;38010;53.264;6.592;2023-02-01T09:06:09;13.10;99.90
51996;DHT22;38010;53.264;6.592;2023-02-01T09:08:37;13.10;99.90
51996;DHT22;38010;53.264;6.592;2023-02-01T09:11:08;13.10;99.90
51996;DHT22;38010;53.264;6.592;2023-02-01T09:13:35;13.10;99.90
51996;DHT22;38010;53.264;6.592;2023-02-01T09:16:02;13.10;99.90
51996;DHT22;38010;53.264;6.592;2023-02-01T09:18:28;13.10;99.90
51996;DHT22;38010;53.264;6.592;2023-02-01T09:20:53;13.10;99.90
51996;DHT22;38010;53.264;6.592;2023-02-01T09:23:19;13.10;99.90
51996;DHT22;38010;53.264;6.592;2023-02-01T09:25:46;13.10;99.90
51996;DHT22;38010;53.264;6.592;2023-02-01T09:28:14;13.10;99.90
51996;DHT22;38010;53.264;6.592;2023-02-01T09:30:39;13.10;99.90
51996;DHT22;38010;53.264;6.592;2023-02-01T09:33:05;13.10;99.90
51996;DHT22;38010;53.264;6.592;2023-02-01T09:35:31;13.10;99.90
51996;DHT22;38010;53.264;6.592;2023-02-01T09:37:56;13.10;99.90
51996;DHT22;38010;53.264;6.592;2023-02-01T09:40:22;13.10;99.90
51996;DHT22;38010;53.264;6.592;2023-02-01T09:43:09;13.10;99.90
51996;DHT22;38010;53.264;6.592;2023-02-01T09:45:49;13.10;99.90
51996;DHT22;38010;53.264;6.592;2023-02-01T09:48:19;13.10;99.90
51996;DHT22;38010;53.264;6.592;2023-02-01T09:50:54;13.20;99.90
51996;DHT22;38010;53.264;6.592;2023-02-01T09:53:37;13.10;99.90
51996;DHT22;38010;53.264;6.592;2023-02-01T09:56:14;13.10;99.90
51996;DHT22;38010;53.264;6.592;2023-02-01T09:59:23;13.10;99.90
51996;DHT22;38010;53.264;6.592;2023-02-01T10:01:50;13.10;99.90
51996;DHT22;38010;53.264;6.592;2023-02-01T10:04:17;13.10;99.90
51996;DHT22;38010;53.264;6.592;2023-02-01T10:26:24;13.10;99.90
51996;DHT22;38010;53.264;6.592;2023-02-01T10:28:52;13.10;99.90
51996;DHT22;38010;53.264;6.592;2023-02-01T10:31:22;13.10;99.90
51996;DHT22;38010;53.264;6.592;2023-02-01T10:33:55;13.10;99.90
51996;DHT22;38010;53.264;6.592;2023-02-01T10:38:51;13.10;99.90
51996;DHT22;38010;53.264;6.592;2023-02-01T10:41:20;13.20;99.90
51996;DHT22;38010;53.264;6.592;2023-02-01T10:43:51;13.20;99.90
51996;DHT22;38010;53.264;6.592;2023-02-01T10:46:18;13.20;99.90
51996;DHT22;38010;53.264;6.592;2023-02-01T10:48:45;13.20;99.90
51996;DHT22;38010;53.264;6.592;2023-02-01T10:51:39;13.20;99.90
51996;DHT22;38010;53.264;6.592;2023-02-01T10:54:21;13.20;99.90
51996;DHT22;38010;53.264;6.592;2023-02-01T10:56:49;13.20;99.90
51996;DHT22;38010;53.264;6.592;2023-02-01T10:59:25;13.20;99.90
51996;DHT22;38010;53.264;6.592;2023-02-01T11:02:02;13.20;99.90
51996;DHT22;38010;53.264;6.592;2023-02-01T11:04:34;13.20;99.90
51996;DHT22;38010;53.264;6.592;2023-02-01T11:07:16;13.20;99.90
51996;DHT22;38010;53.264;6.592;2023-02-01T11:09:52;13.20;99.90
51996;DHT22;38010;53.264;6.592;2023-02-01T11:12:38;13.20;99.90
51996;DHT22;38010;53.264;6.592;2023-02-01T11:15:19;13.20;99.90
51996;DHT22;38010;53.264;6.592;2023-02-01T11:17:47;13.20;99.90
51996;DHT22;38010;53.264;6.592;2023-02-01T11:22:56;13.20;99.90
51996;DHT22;38010;53.264;6.592;2023-02-01T11:25:23;13.20;99.90
51996;DHT22;38010;53.264;6.592;2023-02-01T11:27:51;13.20;99.90
51996;DHT22;38010;53.264;6.592;2023-02-01T11:30:32;13.20;99.90
51996;DHT22;38010;53.264;6.592;2023-02-01T11:32:59;13.20;99.90
51996;DHT22;38010;53.264;6.592;2023-02-01T11:35:28;13.20;99.90
51996;DHT22;38010;53.264;6.592;2023-02-01T11:37:57;13.20;99.90
51996;DHT22;38010;53.264;6.592;2023-02-01T11:40:37;13.20;99.90
51996;DHT22;38010;53.264;6.592;2023-02-01T11:43:26;13.10;99.90
51996;DHT22;38010;53.264;6.592;2023-02-01T11:46:00;13.10;99.90
51996;DHT22;38010;53.264;6.592;2023-02-01T11:48:31;13.20;99.90
51996;DHT22;38010;53.264;6.592;2023-02-01T11:51:20;13.10;99.90
51996;DHT22;38010;53.264;6.592;2023-02-01T11:57:45;13.10;99.90
51996;DHT22;38010;53.264;6.592;2023-02-01T12:00:17;13.10;99.90
51996;DHT22;38010;53.264;6.592;2023-02-01T12:05:59;13.10;99.90
51996;DHT22;38010;53.264;6.592;2023-02-01T12:16:25;13.10;99.90
51996;DHT22;38010;53.264;6.592;2023-02-01T12:25:06;13.10;99.90
51996;DHT22;38010;53.264;6.592;2023-02-01T12:33:00;13.10;99.90
51996;DHT22;38010;53.264;6.592;2023-02-01T12:43:42;13.10;99.90
51996;DHT22;38010;53.264;6.592;2023-02-01T12:49:19;13.10;99.90
51996;DHT22;38010;53.264;6.592;2023-02-01T12:51:54;13.10;99.90
51996;DHT22;38010;53.264;6.592;2023-02-01T12:54:48;13.20;99.90
51996;DHT22;38010;53.264;6.592;2023-02-01T12:57:39;13.20;99.90
51996;DHT22;38010;53.264;6.592;2023-02-01T13:00:20;13.20;99.90
51996;DHT22;38010;53.264;6.592;2023-02-01T13:03:19;13.20;99.90
51996;DHT22;38010;53.264;6.592;2023-02-01T13:08:47;13.20;99.90
51996;DHT22;38010;53.264;6.592;2023-02-01T13:11:18;13.20;99.90
51996;DHT22;38010;53.264;6.592;2023-02-01T13:14:14;13.10;99.90
51996;DHT22;38010;53.264;6.592;2023-02-01T13:16:47;13.10;99.90
51996;DHT22;38010;53.264;6.592;2023-02-01T13:21:50;13.10;99.90
51996;DHT22;38010;53.264;6.592;2023-02-01T13:24:44;13.10;99.90
51996;DHT22;38010;53.264;6.592;2023-02-01T13:27:12;13.10;99.90
51996;DHT22;38010;53.264;6.592;2023-02-01T13:40:30;13.10;99.90
51996;DHT22;38010;53.264;6.592;2023-02-01T13:45:35;13.10;99.90
51996;DHT22;38010;53.264;6.592;2023-02-01T13:48:04;13.10;99.90
51996;DHT22;38010;53.264;6.592;2023-02-01T13:50:33;13.10;99.90
51996;DHT22;38010;53.264;6.592;2023-02-01T13:53:14;13.10;99.90
51996;DHT22;38010;53.264;6.592;2023-02-01T13:55:44;13.10;99.90
51996;DHT22;38010;53.264;6.592;2023-02-01T14:06:44;13.20;99.90
51996;DHT22;38010;53.264;6.592;2023-02-01T14:17:31;13.10;99.90
51996;DHT22;38010;53.264;6.592;2023-02-01T14:19:32;13.20;99.90
51996;DHT22;38010;53.264;6.592;2023-02-01T14:24:50;13.20;99.90
51996;DHT22;38010;53.264;6.592;2023-02-01T14:27:20;13.20;99.90
51996;DHT22;38010;53.264;6.592;2023-02-01T14:29:57;13.20;99.90
51996;DHT22;38010;53.264;6.592;2023-02-01T14:32:36;13.10;99.90
51996;DHT22;38010;53.264;6.592;2023-02-01T14:35:26;13.20;99.90
51996;DHT22;38010;53.264;6.592;2023-02-01T14:37:58;13.20;99.90
51996;DHT22;38010;53.264;6.592;2023-02-01T14:40:27;13.20;99.90
51996;DHT22;38010;53.264;6.592;2023-02-01T14:42:54;13.20;99.90
51996;DHT22;38010;53.264;6.592;2023-02-01T14:56:04;13.20;99.90
51996;DHT22;38010;53.264;6.592;2023-02-01T15:06:45;13.30;99.90
51996;DHT22;38010;53.264;6.592;2023-02-01T15:09:19;13.30;99.90
51996;DHT22;38010;53.264;6.592;2023-02-01T15:14:35;13.30;99.90
51996;DHT22;38010;53.264;6.592;2023-02-01T15:17:02;13.20;99.90
51996;DHT22;38010;53.264;6.592;2023-02-01T15:19:29;13.20;99.90
51996;DHT22;38010;53.264;6.592;2023-02-01T15:21:57;13.20;99.90
51996;DHT22;38010;53.264;6.592;2023-02-01T15:24:28;13.20;99.90
51996;DHT22;38010;53.264;6.592;2023-02-01T15:26:56;13.20;99.90
51996;DHT22;38010;53.264;6.592;2023-02-01T15:29:27;13.30;99.90
51996;DHT22;38010;53.264;6.592;2023-02-01T15:31:58;13.20;99.90
51996;DHT22;38010;53.264;6.592;2023-02-01T15:34:44;13.30;99.90
51996;DHT22;38010;53.264;6.592;2023-02-01T15:37:15;13.30;99.90
51996;DHT22;38010;53.264;6.592;2023-02-01T15:40:18;13.30;99.90
51996;DHT22;38010;53.264;6.592;2023-02-01T15:42:55;13.30;99.90
51996;DHT22;38010;53.264;6.592;2023-02-01T15:45:27;13.30;99.90
51996;DHT22;38010;53.264;6.592;2023-02-01T15:47:56;13.20;99.90
51996;DHT22;38010;53.264;6.592;2023-02-01T15:50:22;13.20;99.90
51996;DHT22;38010;53.264;6.592;2023-02-01T15:52:51;13.20;99.90
51996;DHT22;38010;53.264;6.592;2023-02-01T15:57:48;13.20;99.90
51996;DHT22;38010;53.264;6.592;2023-02-01T16:03:35;13.20;99.90
51996;DHT22;38010;53.264;6.592;2023-02-01T16:06:06;13.30;99.90
51996;DHT22;38010;53.264;6.592;2023-02-01T16:08:33;13.20;99.90
51996;DHT22;38010;53.264;6.592;2023-02-01T16:13:35;13.20;99.90
51996;DHT22;38010;53.264;6.592;2023-02-01T16:16:01;13.20;99.90
51996;DHT22;38010;53.264;6.592;2023-02-01T16:18:27;13.20;99.90
51996;DHT22;38010;53.264;6.592;2023-02-01T16:20:52;13.20;99.90
51996;DHT22;38010;53.264;6.592;2023-02-01T16:23:18;13.20;99.90
51996;DHT22;38010;53.264;6.592;2023-02-01T16:25:46;13.20;99.90
51996;DHT22;38010;53.264;6.592;2023-02-01T16:28:12;13.20;99.90
51996;DHT22;38010;53.264;6.592;2023-02-01T16:30:38;13.20;99.90
51996;DHT22;38010;53.264;6.592;2023-02-01T16:33:05;13.20;99.90
51996;DHT22;38010;53.264;6.592;2023-02-01T16:35:33;13.20;99.90
51996;DHT22;38010;53.264;6.592;2023-02-01T16:38:20;13.20;99.90
51996;DHT22;38010;53.264;6.592;2023-02-01T16:40:48;13.20;99.90
51996;DHT22;38010;53.264;6.592;2023-02-01T16:43:24;13.20;99.90
51996;DHT22;38010;53.264;6.592;2023-02-01T16:45:55;13.20;99.90
51996;DHT22;38010;53.264;6.592;2023-02-01T16:48:30;13.20;99.90
51996;DHT22;38010;53.264;6.592;2023-02-01T16:50:58;13.20;99.90
51996;DHT22;38010;53.264;6.592;2023-02-01T16:53:27;13.20;99.90
51996;DHT22;38010;53.264;6.592;2023-02-01T16:55:55;13.20;99.90
51996;DHT22;38010;53.264;6.592;2023-02-01T16:58:23;13.20;99.90
51996;DHT22;38010;53.264;6.592;2023-02-01T17:00:50;13.10;99.90
51996;DHT22;38010;53.264;6.592;2023-02-01T17:03:19;13.10;99.90
51996;DHT22;38010;53.264;6.592;2023-02-01T17:05:56;13.20;99.90
51996;DHT22;38010;53.264;6.592;2023-02-01T17:08:30;13.10;99.90
51996;DHT22;38010;53.264;6.592;2023-02-01T17:10:57;13.10;99.90
51996;DHT22;38010;53.264;6.592;2023-02-01T17:13:23;13.20;99.90
51996;DHT22;38010;53.264;6.592;2023-02-01T17:16:20;13.20;99.90
51996;DHT22;38010;53.264;6.592;2023-02-01T17:18:52;13.20;99.90
51996;DHT22;38010;53.264;6.592;2023-02-01T17:21:19;13.20;99.90
51996;DHT22;38010;53.264;6.592;2023-02-01T17:23:45;13.20;99.90
51996;DHT22;38010;53.264;6.592;2023-02-01T17:26:11;13.20;99.90
51996;DHT22;38010;53.264;6.592;2023-02-01T17:28:37;13.30;99.90
51996;DHT22;38010;53.264;6.592;2023-02-01T17:31:03;13.30;99.90
51996;DHT22;38010;53.264;6.592;2023-02-01T17:33:35;13.40;99.90
51996;DHT22;38010;53.264;6.592;2023-02-01T17:36:01;13.40;99.90
51996;DHT22;38010;53.264;6.592;2023-02-01T17:38:27;13.40;99.90
51996;DHT22;38010;53.264;6.592;2023-02-01T17:40:53;13.40;99.90
51996;DHT22;38010;53.264;6.592;2023-02-01T17:43:21;13.50;99.90
51996;DHT22;38010;53.264;6.592;2023-02-01T17:45:51;13.50;99.90
51996;DHT22;38010;53.264;6.592;2023-02-01T17:48:19;13.50;99.90
51996;DHT22;38010;53.264;6.592;2023-02-01T17:50:49;13.50;99.90
51996;DHT22;38010;53.264;6.592;2023-02-01T17:53:19;13.50;99.90
51996;DHT22;38010;53.264;6.592;2023-02-01T17:55:49;13.50;99.90
51996;DHT22;38010;53.264;6.592;2023-02-01T17:58:15;13.50;99.90
51996;DHT22;38010;53.264;6.592;2023-02-01T18:00:42;13.50;99.90
51996;DHT22;38010;53.264;6.592;2023-02-01T18:03:26;13.60;99.90
51996;DHT22;38010;53.264;6.592;2023-02-01T18:05:54;13.50;99.90
51996;DHT22;38010;53.264;6.592;2023-02-01T18:08:25;13.50;99.90
51996;DHT22;38010;53.264;6.592;2023-02-01T18:10:56;13.50;99.90
51996;DHT22;38010;53.264;6.592;2023-02-01T18:13:29;13.50;99.90
51996;DHT22;38010;53.264;6.592;2023-02-01T18:15:56;13.50;99.90
51996;DHT22;38010;53.264;6.592;2023-02-01T18:18:24;13.50;99.90
51996;DHT22;38010;53.264;6.592;2023-02-01T18:20:50;13.50;99.90
51996;DHT22;38010;53.264;6.592;2023-02-01T18:23:22;13.50;99.90
51996;DHT22;38010;53.264;6.592;2023-02-01T18:25:49;13.40;99.90
51996;DHT22;38010;53.264;6.592;2023-02-01T18:28:16;13.40;99.90
51996;DHT22;38010;53.264;6.592;2023-02-01T18:30:46;13.40;99.90
51996;DHT22;38010;53.264;6.592;2023-02-01T18:33:14;13.40;99.90